sensor_id;sensor_type;location;lat;lon;timestamp;pressure;altitude;pressure_sealevel;temperature;humidity
61898;BME280;47850;50.274;18.908;2023-04-01T00:01:50;96379.54;;;7.06;84.19
61898;BME280;47850;50.274;18.908;2023-04-01T00:04:18;96373.70;;;7.03;84.09
61898;BME280;47850;50.274;18.908;2023-04-01T00:06:46;96379.60;;;6.98;84.21
61898;BME280;47850;50.274;18.908;2023-04-01T00:09:14;96377.13;;;6.93;84.45
61898;BME280;47850;50.274;18.908;2023-04-01T00:11:42;96376.18;;;6.88;84.69
61898;BME280;47850;50.274;18.908;2023-04-01T00:14:11;96375.27;;;6.83;84.73
61898;BME280;47850;50.274;18.908;2023-04-01T00:16:39;96373.17;;;6.78;84.97
61898;BME280;47850;50.274;18.908;2023-04-01T00:19:07;96372.98;;;6.75;85.19
61898;BME280;47850;50.274;18.908;2023-04-01T00:21:34;96367.40;;;6.71;85.19
61898;BME280;47850;50.274;18.908;2023-04-01T00:24:04;96364.86;;;6.70;85.68
61898;BME280;47850;50.274;18.908;2023-04-01T00:26:31;96368.91;;;6.70;85.95
61898;BME280;47850;50.274;18.908;2023-04-01T00:28:59;96368.91;;;6.73;86.19
61898;BME280;47850;50.274;18.908;2023-04-01T00:31:28;96369.06;;;6.75;86.15
61898;BME280;47850;50.274;18.908;2023-04-01T00:33:56;96365.66;;;6.78;86.11
61898;BME280;47850;50.274;18.908;2023-04-01T00:36:24;96366.20;;;6.80;86.26
61898;BME280;47850;50.274;18.908;2023-04-01T00:38:52;96365.06;;;6.80;86.24
61898;BME280;47850;50.274;18.908;2023-04-01T00:41:20;96362.88;;;6.78;86.36
61898;BME280;47850;50.274;18.908;2023-04-01T00:43:49;96358.86;;;6.73;86.53
61898;BME280;47850;50.274;18.908;2023-04-01T00:46:18;96359.61;;;6.68;86.55
61898;BME280;47850;50.274;18.908;2023-04-01T00:48:53;96362.13;;;6.62;86.64
61898;BME280;47850;50.274;18.908;2023-04-01T00:51:25;96367.42;;;6.56;86.80
61898;BME280;47850;50.274;18.908;2023-04-01T00:53:55;96366.09;;;6.50;87.01
61898;BME280;47850;50.274;18.908;2023-04-01T00:56:31;96373.81;;;6.47;87.08
61898;BME280;47850;50.274;18.908;2023-04-01T00:59:22;96374.18;;;6.45;87.33
61898;BME280;47850;50.274;18.908;2023-04-01T01:01:47;96379.23;;;6.45;87.62
61898;BME280;47850;50.274;18.908;2023-04-01T01:09:30;96377.83;;;6.52;88.15
61898;BME280;47850;50.274;18.908;2023-04-01T01:12:13;96376.13;;;6.54;87.95
61898;BME280;47850;50.274;18.908;2023-04-01T01:25:25;96371.45;;;6.58;88.50
61898;BME280;47850;50.274;18.908;2023-04-01T01:28:02;96367.02;;;6.60;88.47
61898;BME280;47850;50.274;18.908;2023-04-01T01:30:44;96362.44;;;6.60;88.57
61898;BME280;47850;50.274;18.908;2023-04-01T01:33:24;96352.05;;;6.59;88.54
61898;BME280;47850;50.274;18.908;2023-04-01T01:36:00;96352.83;;;6.57;88.78
61898;BME280;47850;50.274;18.908;2023-04-01T01:38:31;96354.43;;;6.53;88.80
61898;BME280;47850;50.274;18.908;2023-04-01T01:41:00;96354.27;;;6.50;88.91
61898;BME280;47850;50.274;18.908;2023-04-01T01:43:30;96354.02;;;6.48;88.86
61898;BME280;47850;50.274;18.908;2023-04-01T01:46:00;96354.24;;;6.45;89.00
61898;BME280;47850;50.274;18.908;2023-04-01T01:48:29;96353.66;;;6.42;89.02
61898;BME280;47850;50.274;18.908;2023-04-01T01:50:57;96350.56;;;6.39;89.19
61898;BME280;47850;50.274;18.908;2023-04-01T01:53:24;96352.71;;;6.36;89.29
61898;BME280;47850;50.274;18.908;2023-04-01T01:55:52;96353.19;;;6.34;89.41
61898;BME280;47850;50.274;18.908;2023-04-01T02:00:53;96349.52;;;6.33;89.58
61898;BME280;47850;50.274;18.908;2023-04-01T02:03:22;96350.98;;;6.33;89.47
61898;BME280;47850;50.274;18.908;2023-04-01T02:05:52;96353.46;;;6.33;89.49
61898;BME280;47850;50.274;18.908;2023-04-01T02:08:22;96354.63;;;6.33;89.55
61898;BME280;47850;50.274;18.908;2023-04-01T02:10:56;96353.19;;;6.34;89.62
61898;BME280;47850;50.274;18.908;2023-04-01T02:13:29;96352.02;;;6.34;89.60
61898;BME280;47850;50.274;18.908;2023-04-01T02:16:00;96353.36;;;6.35;89.56
61898;BME280;47850;50.274;18.908;2023-04-01T02:18:29;96355.48;;;6.35;89.62
61898;BME280;47850;50.274;18.908;2023-04-01T02:20:57;96358.04;;;6.36;89.64
61898;BME280;47850;50.274;18.908;2023-04-01T02:23:26;96360.45;;;6.36;89.69
61898;BME280;47850;50.274;18.908;2023-04-01T02:25:55;96365.12;;;6.37;89.67
61898;BME280;47850;50.274;18.908;2023-04-01T02:28:23;96364.23;;;6.38;89.54
61898;BME280;47850;50.274;18.908;2023-04-01T02:30:52;96369.53;;;6.39;89.55
61898;BME280;47850;50.274;18.908;2023-04-01T02:33:19;96366.14;;;6.40;89.50
61898;BME280;47850;50.274;18.908;2023-04-01T02:35:48;96371.67;;;6.41;89.56
61898;BME280;47850;50.274;18.908;2023-04-01T02:38:15;96376.91;;;6.43;89.61
61898;BME280;47850;50.274;18.908;2023-04-01T02:40:47;96377.27;;;6.44;89.54
61898;BME280;47850;50.274;18.908;2023-04-01T02:43:16;96378.00;;;6.45;89.46
61898;BME280;47850;50.274;18.908;2023-04-01T02:45:44;96374.13;;;6.47;89.53
61898;BME280;47850;50.274;18.908;2023-04-01T02:48:11;96377.80;;;6.49;89.45
61898;BME280;47850;50.274;18.908;2023-04-01T02:50:41;96375.37;;;6.50;89.51
61898;BME280;47850;50.274;18.908;2023-04-01T02:53:09;96376.02;;;6.51;89.65
61898;BME280;47850;50.274;18.908;2023-04-01T02:55:36;96381.29;;;6.53;89.69
61898;BME280;47850;50.274;18.908;2023-04-01T02:58:04;96378.53;;;6.54;89.60
61898;BME280;47850;50.274;18.908;2023-04-01T03:00:32;96380.90;;;6.56;89.76
61898;BME280;47850;50.274;18.908;2023-04-01T03:02:59;96379.56;;;6.57;89.67
61898;BME280;47850;50.274;18.908;2023-04-01T03:05:27;96379.90;;;6.59;89.72
61898;BME280;47850;50.274;18.908;2023-04-01T03:07:55;96381.79;;;6.60;89.72
61898;BME280;47850;50.274;18.908;2023-04-01T03:10:23;96387.16;;;6.61;89.87
61898;BME280;47850;50.274;18.908;2023-04-01T03:12:50;96386.95;;;6.62;89.83
61898;BME280;47850;50.274;18.908;2023-04-01T03:15:18;96391.44;;;6.62;89.87
61898;BME280;47850;50.274;18.908;2023-04-01T03:17:45;96386.34;;;6.62;89.69
61898;BME280;47850;50.274;18.908;2023-04-01T03:20:14;96387.34;;;6.61;89.79
61898;BME280;47850;50.274;18.908;2023-04-01T03:22:42;96385.49;;;6.62;89.83
61898;BME280;47850;50.274;18.908;2023-04-01T03:25:10;96385.09;;;6.61;89.67
61898;BME280;47850;50.274;18.908;2023-04-01T03:27:38;96383.66;;;6.60;89.77
61898;BME280;47850;50.274;18.908;2023-04-01T03:30:06;96380.98;;;6.58;89.60
61898;BME280;47850;50.274;18.908;2023-04-01T03:32:34;96380.27;;;6.56;89.70
61898;BME280;47850;50.274;18.908;2023-04-01T03:35:01;96386.33;;;6.53;89.89
61898;BME280;47850;50.274;18.908;2023-04-01T03:37:29;96383.27;;;6.53;89.87
61898;BME280;47850;50.274;18.908;2023-04-01T03:39:57;96386.13;;;6.52;89.82
61898;BME280;47850;50.274;18.908;2023-04-01T03:42:24;96389.09;;;6.50;89.77
61898;BME280;47850;50.274;18.908;2023-04-01T03:44:53;96389.36;;;6.49;89.77
61898;BME280;47850;50.274;18.908;2023-04-01T03:47:20;96389.59;;;6.49;89.82
61898;BME280;47850;50.274;18.908;2023-04-01T03:49:48;96390.80;;;6.49;89.84
61898;BME280;47850;50.274;18.908;2023-04-01T03:52:16;96394.61;;;6.49;89.77
61898;BME280;47850;50.274;18.908;2023-04-01T03:54:43;96390.40;;;6.50;89.69
61898;BME280;47850;50.274;18.908;2023-04-01T03:57:11;96390.98;;;6.52;89.70
61898;BME280;47850;50.274;18.908;2023-04-01T03:59:38;96391.88;;;6.53;89.69
61898;BME280;47850;50.274;18.908;2023-04-01T04:02:06;96395.39;;;6.54;89.67
61898;BME280;47850;50.274;18.908;2023-04-01T04:04:34;96392.55;;;6.55;89.53
61898;BME280;47850;50.274;18.908;2023-04-01T04:07:01;96394.22;;;6.56;89.36
61898;BME280;47850;50.274;18.908;2023-04-01T04:09:30;96392.08;;;6.57;89.34
61898;BME280;47850;50.274;18.908;2023-04-01T04:11:58;96390.39;;;6.58;89.50
61898;BME280;47850;50.274;18.908;2023-04-01T04:14:26;96387.22;;;6.58;89.58
61898;BME280;47850;50.274;18.908;2023-04-01T04:16:53;96385.98;;;6.58;89.54
61898;BME280;47850;50.274;18.908;2023-04-01T04:19:21;96385.14;;;6.58;89.47
61898;BME280;47850;50.274;18.908;2023-04-01T04:21:49;96387.92;;;6.60;89.28
61898;BME280;47850;50.274;18.908;2023-04-01T04:24:16;96387.34;;;6.61;89.34
61898;BME280;47850;50.274;18.908;2023-04-01T04:26:44;96386.47;;;6.63;89.43
61898;BME280;47850;50.274;18.908;2023-04-01T04:29:12;96385.73;;;6.65;89.39
61898;BME280;47850;50.274;18.908;2023-04-01T04:31:39;96386.72;;;6.66;89.41
61898;BME280;47850;50.274;18.908;2023-04-01T04:34:07;96382.90;;;6.68;89.33
61898;BME280;47850;50.274;18.908;2023-04-01T04:36:35;96384.81;;;6.69;89.40
61898;BME280;47850;50.274;18.908;2023-04-01T04:39:02;96384.86;;;6.71;89.44
61898;BME280;47850;50.274;18.908;2023-04-01T04:41:30;96386.48;;;6.73;89.51
61898;BME280;47850;50.274;18.908;2023-04-01T04:43:58;96388.45;;;6.75;89.48
61898;BME280;47850;50.274;18.908;2023-04-01T04:46:26;96387.75;;;6.77;89.49
61898;BME280;47850;50.274;18.908;2023-04-01T04:48:53;96382.48;;;6.79;89.45
61898;BME280;47850;50.274;18.908;2023-04-01T04:51:21;96385.19;;;6.81;89.52
61898;BME280;47850;50.274;18.908;2023-04-01T04:53:49;96389.52;;;6.83;89.50
61898;BME280;47850;50.274;18.908;2023-04-01T04:56:18;96390.70;;;6.87;89.51
61898;BME280;47850;50.274;18.908;2023-04-01T04:58:46;96394.46;;;6.91;89.60
61898;BME280;47850;50.274;18.908;2023-04-01T05:01:15;96391.27;;;6.95;89.60
61898;BME280;47850;50.274;18.908;2023-04-01T05:03:43;96394.98;;;7.00;89.58
61898;BME280;47850;50.274;18.908;2023-04-01T05:06:11;96394.15;;;7.05;89.62
61898;BME280;47850;50.274;18.908;2023-04-01T05:08:40;96394.55;;;7.11;89.47
61898;BME280;47850;50.274;18.908;2023-04-01T05:11:16;96397.58;;;7.16;89.43
61898;BME280;47850;50.274;18.908;2023-04-01T05:13:44;96399.13;;;7.19;89.45
61898;BME280;47850;50.274;18.908;2023-04-01T05:16:14;96395.77;;;7.23;89.39
61898;BME280;47850;50.274;18.908;2023-04-01T05:18:42;96395.69;;;7.26;89.25
61898;BME280;47850;50.274;18.908;2023-04-01T05:21:11;96397.05;;;7.29;89.21
61898;BME280;47850;50.274;18.908;2023-04-01T05:23:40;96397.80;;;7.31;89.14
61898;BME280;47850;50.274;18.908;2023-04-01T05:26:09;96403.15;;;7.34;89.16
61898;BME280;47850;50.274;18.908;2023-04-01T05:28:37;96399.23;;;7.37;89.10
61898;BME280;47850;50.274;18.908;2023-04-01T05:31:06;96398.67;;;7.40;89.06
61898;BME280;47850;50.274;18.908;2023-04-01T05:33:34;96402.56;;;7.43;88.84
61898;BME280;47850;50.274;18.908;2023-04-01T05:36:06;96401.94;;;7.45;88.77
61898;BME280;47850;50.274;18.908;2023-04-01T05:38:33;96399.65;;;7.47;88.76
61898;BME280;47850;50.274;18.908;2023-04-01T05:41:02;96400.83;;;7.47;88.74
61898;BME280;47850;50.274;18.908;2023-04-01T05:43:29;96404.04;;;7.48;88.53
61898;BME280;47850;50.274;18.908;2023-04-01T05:45:57;96404.95;;;7.48;88.56
61898;BME280;47850;50.274;18.908;2023-04-01T05:48:25;96400.71;;;7.48;88.59
61898;BME280;47850;50.274;18.908;2023-04-01T05:50:53;96403.06;;;7.49;88.51
61898;BME280;47850;50.274;18.908;2023-04-01T05:53:20;96405.63;;;7.49;88.50
61898;BME280;47850;50.274;18.908;2023-04-01T05:55:48;96403.83;;;7.49;88.42
61898;BME280;47850;50.274;18.908;2023-04-01T05:58:16;96404.81;;;7.50;88.46
61898;BME280;47850;50.274;18.908;2023-04-01T06:00:43;96410.49;;;7.52;88.47
61898;BME280;47850;50.274;18.908;2023-04-01T06:03:11;96411.23;;;7.54;88.39
61898;BME280;47850;50.274;18.908;2023-04-01T06:05:42;96414.17;;;7.56;88.37
61898;BME280;47850;50.274;18.908;2023-04-01T06:08:15;96417.80;;;7.60;88.21
61898;BME280;47850;50.274;18.908;2023-04-01T06:13:53;96422.65;;;7.73;87.86
61898;BME280;47850;50.274;18.908;2023-04-01T06:22:08;96423.55;;;7.82;87.65
61898;BME280;47850;50.274;18.908;2023-04-01T06:32:26;96422.56;;;8.06;87.02
61898;BME280;47850;50.274;18.908;2023-04-01T06:40:21;96431.57;;;8.17;86.39
61898;BME280;47850;50.274;18.908;2023-04-01T06:43:06;96431.55;;;8.23;85.99
61898;BME280;47850;50.274;18.908;2023-04-01T06:45:41;96434.45;;;8.29;85.67
61898;BME280;47850;50.274;18.908;2023-04-01T06:56:08;96431.58;;;8.41;85.71
61898;BME280;47850;50.274;18.908;2023-04-01T06:58:38;96431.16;;;8.37;86.09
61898;BME280;47850;50.274;18.908;2023-04-01T07:01:10;96434.37;;;8.38;86.18
61898;BME280;47850;50.274;18.908;2023-04-01T07:03:40;96432.17;;;8.40;86.24
61898;BME280;47850;50.274;18.908;2023-04-01T07:06:10;96435.16;;;8.42;86.38
61898;BME280;47850;50.274;18.908;2023-04-01T07:08:40;96437.88;;;8.45;86.52
61898;BME280;47850;50.274;18.908;2023-04-01T07:11:09;96438.84;;;8.51;86.49
61898;BME280;47850;50.274;18.908;2023-04-01T07:13:49;96438.20;;;8.59;86.38
61898;BME280;47850;50.274;18.908;2023-04-01T07:16:32;96439.68;;;8.69;86.36
61898;BME280;47850;50.274;18.908;2023-04-01T07:21:52;96444.64;;;8.93;86.48
61898;BME280;47850;50.274;18.908;2023-04-01T07:24:33;96450.11;;;8.91;85.85
61898;BME280;47850;50.274;18.908;2023-04-01T07:27:02;96452.91;;;8.82;86.09
61898;BME280;47850;50.274;18.908;2023-04-01T07:29:30;96456.85;;;8.72;86.53
61898;BME280;47850;50.274;18.908;2023-04-01T07:32:09;96455.62;;;8.60;86.97
61898;BME280;47850;50.274;18.908;2023-04-01T07:39:43;96458.27;;;8.32;88.41
61898;BME280;47850;50.274;18.908;2023-04-01T07:42:15;96459.48;;;8.31;88.91
61898;BME280;47850;50.274;18.908;2023-04-01T07:44:50;96462.17;;;8.33;89.19
61898;BME280;47850;50.274;18.908;2023-04-01T07:54:53;96467.34;;;9.30;87.10
61898;BME280;47850;50.274;18.908;2023-04-01T07:57:32;96466.55;;;9.43;86.87
61898;BME280;47850;50.274;18.908;2023-04-01T08:00:19;96469.05;;;9.49;85.66
61898;BME280;47850;50.274;18.908;2023-04-01T08:03:33;96468.67;;;9.47;85.34
61898;BME280;47850;50.274;18.908;2023-04-01T08:05:47;96466.52;;;9.55;85.69
61898;BME280;47850;50.274;18.908;2023-04-01T08:16:35;96476.64;;;9.72;84.37
61898;BME280;47850;50.274;18.908;2023-04-01T08:19:17;96482.72;;;9.81;84.29
61898;BME280;47850;50.274;18.908;2023-04-01T08:21:52;96485.23;;;9.85;84.01
61898;BME280;47850;50.274;18.908;2023-04-01T08:24:25;96482.48;;;9.81;84.20
61898;BME280;47850;50.274;18.908;2023-04-01T08:26:55;96488.40;;;9.77;84.29
61898;BME280;47850;50.274;18.908;2023-04-01T08:29:34;96490.68;;;9.75;84.42
61898;BME280;47850;50.274;18.908;2023-04-01T08:32:09;96483.45;;;9.75;84.03
61898;BME280;47850;50.274;18.908;2023-04-01T08:34:39;96485.92;;;9.78;84.25
61898;BME280;47850;50.274;18.908;2023-04-01T08:37:10;96487.94;;;9.82;84.13
61898;BME280;47850;50.274;18.908;2023-04-01T08:39:46;96484.39;;;9.83;84.06
61898;BME280;47850;50.274;18.908;2023-04-01T08:42:31;96487.49;;;9.79;84.06
61898;BME280;47850;50.274;18.908;2023-04-01T08:45:15;96482.17;;;9.81;84.18
61898;BME280;47850;50.274;18.908;2023-04-01T08:58:05;96484.16;;;9.44;87.81
61898;BME280;47850;50.274;18.908;2023-04-01T09:05:59;96486.51;;;9.94;87.70
61898;BME280;47850;50.274;18.908;2023-04-01T09:08:48;96480.73;;;10.38;86.80
61898;BME280;47850;50.274;18.908;2023-04-01T09:11:43;96484.70;;;10.66;85.74
61898;BME280;47850;50.274;18.908;2023-04-01T09:40:53;96491.20;;;11.52;84.06
61898;BME280;47850;50.274;18.908;2023-04-01T09:43:23;96489.89;;;11.58;83.66
61898;BME280;47850;50.274;18.908;2023-04-01T09:46:04;96490.34;;;11.68;83.53
61898;BME280;47850;50.274;18.908;2023-04-01T09:51:40;96488.92;;;11.61;82.27
61898;BME280;47850;50.274;18.908;2023-04-01T09:54:24;96490.66;;;11.43;82.02
61898;BME280;47850;50.274;18.908;2023-04-01T10:23:20;96505.08;;;10.87;80.20
61898;BME280;47850;50.274;18.908;2023-04-01T10:30:55;96495.36;;;11.39;80.68
61898;BME280;47850;50.274;18.908;2023-04-01T10:38:49;96493.95;;;11.70;79.03
61898;BME280;47850;50.274;18.908;2023-04-01T10:51:25;96494.84;;;11.41;78.75
61898;BME280;47850;50.274;18.908;2023-04-01T11:12:23;96493.76;;;12.56;73.93
61898;BME280;47850;50.274;18.908;2023-04-01T11:28:27;96490.98;;;13.33;69.49
61898;BME280;47850;50.274;18.908;2023-04-01T11:46:56;96489.90;;;12.08;71.08
61898;BME280;47850;50.274;18.908;2023-04-01T11:55:02;96493.64;;;11.87;73.14
61898;BME280;47850;50.274;18.908;2023-04-01T12:00:35;96494.94;;;11.57;74.18
61898;BME280;47850;50.274;18.908;2023-04-01T12:05:43;96493.78;;;11.33;75.90
61898;BME280;47850;50.274;18.908;2023-04-01T12:08:19;96499.10;;;11.29;76.52
61898;BME280;47850;50.274;18.908;2023-04-01T12:10:58;96500.72;;;11.24;77.10
61898;BME280;47850;50.274;18.908;2023-04-01T12:44:53;96515.29;;;12.47;68.36
61898;BME280;47850;50.274;18.908;2023-04-01T12:50:24;96514.45;;;12.23;68.79
61898;BME280;47850;50.274;18.908;2023-04-01T12:55:39;96512.47;;;12.09;69.50
61898;BME280;47850;50.274;18.908;2023-04-01T12:58:15;96515.81;;;12.02;69.24
61898;BME280;47850;50.274;18.908;2023-04-01T13:00:55;96518.73;;;11.94;69.88
61898;BME280;47850;50.274;18.908;2023-04-01T13:21:19;96523.38;;;12.02;70.50
61898;BME280;47850;50.274;18.908;2023-04-01T13:26:31;96528.34;;;12.10;69.78
61898;BME280;47850;50.274;18.908;2023-04-01T13:34:56;96536.71;;;11.71;71.26
61898;BME280;47850;50.274;18.908;2023-04-01T13:37:47;96542.78;;;11.50;71.94
61898;BME280;47850;50.274;18.908;2023-04-01T13:43:11;96548.33;;;11.18;77.42
61898;BME280;47850;50.274;18.908;2023-04-01T13:53:19;96558.15;;;11.18;80.29
61898;BME280;47850;50.274;18.908;2023-04-01T14:09:23;96551.87;;;11.57;78.71
61898;BME280;47850;50.274;18.908;2023-04-01T14:11:57;96560.59;;;11.46;78.82
61898;BME280;47850;50.274;18.908;2023-04-01T14:14:34;96564.29;;;11.39;79.23
61898;BME280;47850;50.274;18.908;2023-04-01T14:22:37;96574.54;;;11.27;78.59
61898;BME280;47850;50.274;18.908;2023-04-01T14:27:44;96575.30;;;11.13;79.31
61898;BME280;47850;50.274;18.908;2023-04-01T14:30:17;96575.33;;;11.02;79.91
61898;BME280;47850;50.274;18.908;2023-04-01T14:45:31;96580.27;;;10.30;81.21
61898;BME280;47850;50.274;18.908;2023-04-01T14:50:42;96576.89;;;10.50;82.13
61898;BME280;47850;50.274;18.908;2023-04-01T14:55:58;96577.37;;;11.16;81.46
61898;BME280;47850;50.274;18.908;2023-04-01T15:04:07;96588.55;;;11.04;81.96
61898;BME280;47850;50.274;18.908;2023-04-01T15:11:51;96583.29;;;10.82;81.10
61898;BME280;47850;50.274;18.908;2023-04-01T15:19:49;96588.99;;;10.79;80.42
61898;BME280;47850;50.274;18.908;2023-04-01T15:30:28;96608.10;;;10.22;80.58
61898;BME280;47850;50.274;18.908;2023-04-01T15:50:46;96626.20;;;9.21;85.96
61898;BME280;47850;50.274;18.908;2023-04-01T15:53:37;96630.04;;;9.13;86.40
61898;BME280;47850;50.274;18.908;2023-04-01T16:01:18;96630.02;;;8.95;87.89
61898;BME280;47850;50.274;18.908;2023-04-01T16:09:39;96637.54;;;8.77;89.20
61898;BME280;47850;50.274;18.908;2023-04-01T16:14:47;96640.75;;;8.65;89.29
61898;BME280;47850;50.274;18.908;2023-04-01T16:17:28;96638.69;;;8.61;89.44
61898;BME280;47850;50.274;18.908;2023-04-01T16:22:37;96632.03;;;8.61;88.53
61898;BME280;47850;50.274;18.908;2023-04-01T16:35:52;96646.95;;;8.62;87.51
61898;BME280;47850;50.274;18.908;2023-04-01T16:51:22;96673.77;;;8.43;88.42
61898;BME280;47850;50.274;18.908;2023-04-01T16:54:02;96678.23;;;8.39;88.81
61898;BME280;47850;50.274;18.908;2023-04-01T16:56:45;96682.07;;;8.35;89.07
61898;BME280;47850;50.274;18.908;2023-04-01T17:01:53;96692.49;;;8.31;89.61
61898;BME280;47850;50.274;18.908;2023-04-01T17:07:01;96696.70;;;8.29;89.77
61898;BME280;47850;50.274;18.908;2023-04-01T17:09:56;96704.52;;;8.28;89.92
61898;BME280;47850;50.274;18.908;2023-04-01T17:15:18;96717.04;;;8.29;89.76
61898;BME280;47850;50.274;18.908;2023-04-01T17:17:51;96721.11;;;8.28;89.63
61898;BME280;47850;50.274;18.908;2023-04-01T17:20:27;96722.69;;;8.29;89.76
61898;BME280;47850;50.274;18.908;2023-04-01T17:30:57;96732.55;;;8.27;89.65
61898;BME280;47850;50.274;18.908;2023-04-01T17:36:39;96738.30;;;8.24;89.67
61898;BME280;47850;50.274;18.908;2023-04-01T17:47:01;96752.64;;;8.26;89.62
61898;BME280;47850;50.274;18.908;2023-04-01T17:49:37;96757.70;;;8.27;89.47
61898;BME280;47850;50.274;18.908;2023-04-01T18:00:00;96772.39;;;8.25;88.18
61898;BME280;47850;50.274;18.908;2023-04-01T18:02:38;96777.17;;;8.22;88.04
61898;BME280;47850;50.274;18.908;2023-04-01T18:05:27;96775.25;;;8.20;88.06
61898;BME280;47850;50.274;18.908;2023-04-01T18:21:27;96794.84;;;8.00;88.63
61898;BME280;47850;50.274;18.908;2023-04-01T18:24:16;96797.75;;;7.97;89.26
61898;BME280;47850;50.274;18.908;2023-04-01T18:29:48;96803.20;;;7.92;89.33
61898;BME280;47850;50.274;18.908;2023-04-01T18:35:02;96802.99;;;7.87;89.33
61898;BME280;47850;50.274;18.908;2023-04-01T18:37:42;96805.58;;;7.83;89.28
61898;BME280;47850;50.274;18.908;2023-04-01T18:43:01;96815.51;;;7.76;89.54
61898;BME280;47850;50.274;18.908;2023-04-01T18:45:33;96824.40;;;7.75;89.56
61898;BME280;47850;50.274;18.908;2023-04-01T18:55:40;96837.82;;;7.78;89.80
61898;BME280;47850;50.274;18.908;2023-04-01T19:00:42;96837.95;;;7.77;90.17
61898;BME280;47850;50.274;18.908;2023-04-01T19:03:16;96841.19;;;7.76;90.38
61898;BME280;47850;50.274;18.908;2023-04-01T19:05:48;96844.61;;;7.75;90.54
61898;BME280;47850;50.274;18.908;2023-04-01T19:13:29;96838.27;;;7.66;90.89
61898;BME280;47850;50.274;18.908;2023-04-01T19:29:52;96850.48;;;7.53;91.62
61898;BME280;47850;50.274;18.908;2023-04-01T19:37:50;96860.33;;;7.50;92.06
61898;BME280;47850;50.274;18.908;2023-04-01T19:40:31;96859.95;;;7.50;92.12
61898;BME280;47850;50.274;18.908;2023-04-01T19:43:03;96861.27;;;7.51;92.28
61898;BME280;47850;50.274;18.908;2023-04-01T19:50:40;96872.66;;;7.53;92.42
61898;BME280;47850;50.274;18.908;2023-04-01T19:55:56;96874.21;;;7.50;92.46
61898;BME280;47850;50.274;18.908;2023-04-01T19:58:33;96876.96;;;7.49;92.63
61898;BME280;47850;50.274;18.908;2023-04-01T20:01:04;96881.66;;;7.49;92.64
61898;BME280;47850;50.274;18.908;2023-04-01T20:03:39;96881.86;;;7.48;92.79
61898;BME280;47850;50.274;18.908;2023-04-01T20:15:04;96887.46;;;7.50;93.23
61898;BME280;47850;50.274;18.908;2023-04-01T20:17:24;96886.55;;;7.51;93.18
61898;BME280;47850;50.274;18.908;2023-04-01T20:20:14;96887.81;;;7.52;93.23
61898;BME280;47850;50.274;18.908;2023-04-01T20:49:23;96911.88;;;7.63;93.44
61898;BME280;47850;50.274;18.908;2023-04-01T20:57:21;96914.12;;;7.65;93.41
61898;BME280;47850;50.274;18.908;2023-04-01T21:02:22;96920.95;;;7.65;93.25
61898;BME280;47850;50.274;18.908;2023-04-01T21:12:56;96929.80;;;7.65;93.50
61898;BME280;47850;50.274;18.908;2023-04-01T21:18:14;96935.69;;;7.66;93.58
61898;BME280;47850;50.274;18.908;2023-04-01T21:28:49;96944.44;;;7.68;93.86
61898;BME280;47850;50.274;18.908;2023-04-01T21:31:25;96945.23;;;7.68;93.84
61898;BME280;47850;50.274;18.908;2023-04-01T21:34:10;96948.57;;;7.69;93.91
61898;BME280;47850;50.274;18.908;2023-04-01T21:39:56;96954.16;;;7.68;93.77
61898;BME280;47850;50.274;18.908;2023-04-01T21:44:54;96951.80;;;7.68;93.87
61898;BME280;47850;50.274;18.908;2023-04-01T22:13:35;96960.61;;;7.70;93.76
61898;BME280;47850;50.274;18.908;2023-04-01T22:18:50;96965.09;;;7.68;94.10
61898;BME280;47850;50.274;18.908;2023-04-01T22:21:38;96971.75;;;7.68;94.15
61898;BME280;47850;50.274;18.908;2023-04-01T22:24:26;96974.08;;;7.68;94.21
61898;BME280;47850;50.274;18.908;2023-04-01T22:29:50;96975.63;;;7.69;94.16
61898;BME280;47850;50.274;18.908;2023-04-01T22:34:47;96975.61;;;7.70;94.22
61898;BME280;47850;50.274;18.908;2023-04-01T22:37:27;96974.61;;;7.70;94.21
61898;BME280;47850;50.274;18.908;2023-04-01T22:40:34;96978.66;;;7.71;94.21
61898;BME280;47850;50.274;18.908;2023-04-01T22:43:06;96979.02;;;7.70;94.23
61898;BME280;47850;50.274;18.908;2023-04-01T22:45:52;96981.10;;;7.69;94.37
61898;BME280;47850;50.274;18.908;2023-04-01T22:48:26;96983.69;;;7.70;94.47
61898;BME280;47850;50.274;18.908;2023-04-01T22:56:07;96983.98;;;7.70;94.21
61898;BME280;47850;50.274;18.908;2023-04-01T22:58:40;96981.73;;;7.67;94.24
61898;BME280;47850;50.274;18.908;2023-04-01T23:01:12;96985.98;;;7.63;94.20
61898;BME280;47850;50.274;18.908;2023-04-01T23:03:41;96987.23;;;7.59;94.33
61898;BME280;47850;50.274;18.908;2023-04-01T23:06:16;96989.01;;;7.57;94.46
61898;BME280;47850;50.274;18.908;2023-04-01T23:16:41;97001.01;;;7.55;94.96
61898;BME280;47850;50.274;18.908;2023-04-01T23:19:19;97000.69;;;7.57;95.02
61898;BME280;47850;50.274;18.908;2023-04-01T23:21:52;97000.04;;;7.58;95.02
61898;BME280;47850;50.274;18.908;2023-04-01T23:24:25;97001.45;;;7.59;94.93
61898;BME280;47850;50.274;18.908;2023-04-01T23:26:58;97001.56;;;7.59;95.05
61898;BME280;47850;50.274;18.908;2023-04-01T23:29:28;97004.39;;;7.60;95.05
61898;BME280;47850;50.274;18.908;2023-04-01T23:31:56;97003.56;;;7.61;94.99
61898;BME280;47850;50.274;18.908;2023-04-01T23:34:34;97005.89;;;7.61;95.10
61898;BME280;47850;50.274;18.908;2023-04-01T23:37:07;97007.99;;;7.61;95.04
61898;BME280;47850;50.274;18.908;2023-04-01T23:39:41;97010.42;;;7.60;94.90
61898;BME280;47850;50.274;18.908;2023-04-01T23:44:42;97017.05;;;7.59;94.93
61898;BME280;47850;50.274;18.908;2023-04-01T23:47:21;97015.46;;;7.56;94.76
61898;BME280;47850;50.274;18.908;2023-04-01T23:50:11;97017.33;;;7.54;94.91
61898;BME280;47850;50.274;18.908;2023-04-01T23:55:32;97020.77;;;7.50;95.12
